sensor_id;sensor_type;location;lat;lon;timestamp;temperature;humidity
24162;DHT22;12318;51.262;7.066;2023-06-24T00:00:07;17.50;99.90
24162;DHT22;12318;51.262;7.066;2023-06-24T00:02:36;17.50;99.90
24162;DHT22;12318;51.262;7.066;2023-06-24T00:05:03;17.40;99.90
24162;DHT22;12318;51.262;7.066;2023-06-24T00:07:30;17.40;99.90
24162;DHT22;12318;51.262;7.066;2023-06-24T00:09:55;17.60;99.90
24162;DHT22;12318;51.262;7.066;2023-06-24T00:12:21;17.60;99.90
24162;DHT22;12318;51.262;7.066;2023-06-24T00:14:47;17.70;99.90
24162;DHT22;12318;51.262;7.066;2023-06-24T00:17:14;17.60;99.90
24162;DHT22;12318;51.262;7.066;2023-06-24T00:19:42;17.60;99.90
24162;DHT22;12318;51.262;7.066;2023-06-24T00:22:09;17.70;99.90
24162;DHT22;12318;51.262;7.066;2023-06-24T00:24:35;17.60;99.90
24162;DHT22;12318;51.262;7.066;2023-06-24T00:27:01;17.50;99.90
24162;DHT22;12318;51.262;7.066;2023-06-24T00:29:26;17.30;99.90
24162;DHT22;12318;51.262;7.066;2023-06-24T00:31:52;17.30;99.90
24162;DHT22;12318;51.262;7.066;2023-06-24T00:34:18;17.20;99.90
24162;DHT22;12318;51.262;7.066;2023-06-24T00:36:45;17.10;99.90
24162;DHT22;12318;51.262;7.066;2023-06-24T00:39:12;17.10;99.90
24162;DHT22;12318;51.262;7.066;2023-06-24T00:41:38;17.10;99.90
24162;DHT22;12318;51.262;7.066;2023-06-24T00:44:04;17.20;99.90
24162;DHT22;12318;51.262;7.066;2023-06-24T00:46:30;17.30;99.90
24162;DHT22;12318;51.262;7.066;2023-06-24T00:48:59;17.40;99.90
24162;DHT22;12318;51.262;7.066;2023-06-24T00:51:26;17.50;99.90
24162;DHT22;12318;51.262;7.066;2023-06-24T00:53:59;17.50;99.90
24162;DHT22;12318;51.262;7.066;2023-06-24T00:56:28;17.20;99.90
24162;DHT22;12318;51.262;7.066;2023-06-24T00:58:57;16.90;99.90
24162;DHT22;12318;51.262;7.066;2023-06-24T01:01:25;16.70;99.90
24162;DHT22;12318;51.262;7.066;2023-06-24T01:03:51;16.60;99.90
24162;DHT22;12318;51.262;7.066;2023-06-24T01:06:17;16.40;99.90
24162;DHT22;12318;51.262;7.066;2023-06-24T01:08:44;16.30;99.90
24162;DHT22;12318;51.262;7.066;2023-06-24T01:11:16;16.20;99.90
24162;DHT22;12318;51.262;7.066;2023-06-24T01:13:42;16.10;99.90
24162;DHT22;12318;51.262;7.066;2023-06-24T01:16:11;16.10;99.90
24162;DHT22;12318;51.262;7.066;2023-06-24T01:18:43;16.10;99.90
24162;DHT22;12318;51.262;7.066;2023-06-24T01:27:20;16.30;99.90
24162;DHT22;12318;51.262;7.066;2023-06-24T01:32:48;16.50;99.90
24162;DHT22;12318;51.262;7.066;2023-06-24T01:35:25;16.60;99.90
24162;DHT22;12318;51.262;7.066;2023-06-24T01:37:53;16.70;99.90
24162;DHT22;12318;51.262;7.066;2023-06-24T01:40:27;16.70;99.90
24162;DHT22;12318;51.262;7.066;2023-06-24T01:42:56;16.80;99.90
24162;DHT22;12318;51.262;7.066;2023-06-24T01:45:32;16.90;99.90
24162;DHT22;12318;51.262;7.066;2023-06-24T01:48:13;16.80;99.90
24162;DHT22;12318;51.262;7.066;2023-06-24T01:50:48;16.70;99.90
24162;DHT22;12318;51.262;7.066;2023-06-24T01:53:17;16.70;99.90
24162;DHT22;12318;51.262;7.066;2023-06-24T01:55:45;16.60;99.90
24162;DHT22;12318;51.262;7.066;2023-06-24T01:58:13;16.40;99.90
24162;DHT22;12318;51.262;7.066;2023-06-24T02:00:42;16.50;99.90
24162;DHT22;12318;51.262;7.066;2023-06-24T02:03:08;16.60;99.90
24162;DHT22;12318;51.262;7.066;2023-06-24T02:05:36;16.80;99.90
24162;DHT22;12318;51.262;7.066;2023-06-24T02:08:07;16.90;99.90
24162;DHT22;12318;51.262;7.066;2023-06-24T02:10:36;17.00;99.90
24162;DHT22;12318;51.262;7.066;2023-06-24T02:13:04;17.10;99.90
24162;DHT22;12318;51.262;7.066;2023-06-24T02:15:31;17.10;99.90
24162;DHT22;12318;51.262;7.066;2023-06-24T02:17:59;17.10;99.90
24162;DHT22;12318;51.262;7.066;2023-06-24T02:20:28;17.00;99.90
24162;DHT22;12318;51.262;7.066;2023-06-24T02:22:56;17.00;99.90
24162;DHT22;12318;51.262;7.066;2023-06-24T02:25:24;17.00;99.90
24162;DHT22;12318;51.262;7.066;2023-06-24T02:27:53;16.90;99.90
24162;DHT22;12318;51.262;7.066;2023-06-24T02:30:19;16.90;99.90
24162;DHT22;12318;51.262;7.066;2023-06-24T02:32:46;16.90;99.90
24162;DHT22;12318;51.262;7.066;2023-06-24T02:35:12;16.80;99.90
24162;DHT22;12318;51.262;7.066;2023-06-24T02:37:38;16.80;99.90
24162;DHT22;12318;51.262;7.066;2023-06-24T02:40:05;16.80;99.90
24162;DHT22;12318;51.262;7.066;2023-06-24T02:42:31;16.80;99.90
24162;DHT22;12318;51.262;7.066;2023-06-24T02:44:58;16.80;99.90
24162;DHT22;12318;51.262;7.066;2023-06-24T02:47:24;16.80;99.90
24162;DHT22;12318;51.262;7.066;2023-06-24T02:49:50;16.80;99.90
24162;DHT22;12318;51.262;7.066;2023-06-24T02:52:17;16.80;99.90
24162;DHT22;12318;51.262;7.066;2023-06-24T02:54:44;16.80;99.90
24162;DHT22;12318;51.262;7.066;2023-06-24T02:57:10;16.80;99.90
24162;DHT22;12318;51.262;7.066;2023-06-24T02:59:36;16.70;99.90
24162;DHT22;12318;51.262;7.066;2023-06-24T03:02:03;16.70;99.90
24162;DHT22;12318;51.262;7.066;2023-06-24T03:04:30;16.70;99.90
24162;DHT22;12318;51.262;7.066;2023-06-24T03:06:57;16.80;99.90
24162;DHT22;12318;51.262;7.066;2023-06-24T03:09:26;16.80;99.90
24162;DHT22;12318;51.262;7.066;2023-06-24T03:11:52;16.90;99.90
24162;DHT22;12318;51.262;7.066;2023-06-24T03:14:19;16.90;99.90
24162;DHT22;12318;51.262;7.066;2023-06-24T03:16:45;16.90;99.90
24162;DHT22;12318;51.262;7.066;2023-06-24T03:19:11;17.00;99.90
24162;DHT22;12318;51.262;7.066;2023-06-24T03:21:36;17.00;99.90
24162;DHT22;12318;51.262;7.066;2023-06-24T03:24:03;17.10;99.90
24162;DHT22;12318;51.262;7.066;2023-06-24T03:26:47;17.20;99.90
24162;DHT22;12318;51.262;7.066;2023-06-24T03:29:12;17.30;99.90
24162;DHT22;12318;51.262;7.066;2023-06-24T03:31:39;17.30;99.90
24162;DHT22;12318;51.262;7.066;2023-06-24T03:34:10;17.30;99.90
24162;DHT22;12318;51.262;7.066;2023-06-24T03:36:36;17.30;99.90
24162;DHT22;12318;51.262;7.066;2023-06-24T03:39:05;17.30;99.90
24162;DHT22;12318;51.262;7.066;2023-06-24T03:41:30;17.30;99.90
24162;DHT22;12318;51.262;7.066;2023-06-24T03:43:56;17.30;99.90
24162;DHT22;12318;51.262;7.066;2023-06-24T03:46:22;17.20;99.90
24162;DHT22;12318;51.262;7.066;2023-06-24T03:48:50;17.20;99.90
24162;DHT22;12318;51.262;7.066;2023-06-24T03:51:16;17.10;99.90
24162;DHT22;12318;51.262;7.066;2023-06-24T03:53:41;17.10;99.90
24162;DHT22;12318;51.262;7.066;2023-06-24T03:56:07;17.10;99.90
24162;DHT22;12318;51.262;7.066;2023-06-24T03:58:33;17.20;99.90
24162;DHT22;12318;51.262;7.066;2023-06-24T04:01:01;17.20;99.90
24162;DHT22;12318;51.262;7.066;2023-06-24T04:03:27;17.20;99.90
24162;DHT22;12318;51.262;7.066;2023-06-24T04:05:57;17.30;99.90
24162;DHT22;12318;51.262;7.066;2023-06-24T04:08:23;17.30;99.90
24162;DHT22;12318;51.262;7.066;2023-06-24T04:10:55;17.30;99.90
24162;DHT22;12318;51.262;7.066;2023-06-24T04:13:21;17.40;99.90
24162;DHT22;12318;51.262;7.066;2023-06-24T04:15:47;17.50;99.90
24162;DHT22;12318;51.262;7.066;2023-06-24T04:18:13;17.60;99.90
24162;DHT22;12318;51.262;7.066;2023-06-24T04:20:38;17.70;99.90
24162;DHT22;12318;51.262;7.066;2023-06-24T04:23:05;17.70;99.90
24162;DHT22;12318;51.262;7.066;2023-06-24T04:25:31;17.60;99.90
24162;DHT22;12318;51.262;7.066;2023-06-24T04:27:57;17.70;99.90
24162;DHT22;12318;51.262;7.066;2023-06-24T04:30:23;17.60;99.90
24162;DHT22;12318;51.262;7.066;2023-06-24T04:32:49;17.50;99.90
24162;DHT22;12318;51.262;7.066;2023-06-24T04:35:14;17.50;99.90
24162;DHT22;12318;51.262;7.066;2023-06-24T04:37:40;17.50;99.90
24162;DHT22;12318;51.262;7.066;2023-06-24T04:40:07;17.50;99.90
24162;DHT22;12318;51.262;7.066;2023-06-24T04:42:33;17.60;99.90
24162;DHT22;12318;51.262;7.066;2023-06-24T04:44:59;17.60;99.90
24162;DHT22;12318;51.262;7.066;2023-06-24T04:47:24;17.70;99.90
24162;DHT22;12318;51.262;7.066;2023-06-24T04:49:50;17.60;99.90
24162;DHT22;12318;51.262;7.066;2023-06-24T04:52:16;17.60;99.90
24162;DHT22;12318;51.262;7.066;2023-06-24T04:54:42;17.70;99.90
24162;DHT22;12318;51.262;7.066;2023-06-24T04:57:24;17.70;99.90
24162;DHT22;12318;51.262;7.066;2023-06-24T04:59:49;17.50;99.90
24162;DHT22;12318;51.262;7.066;2023-06-24T05:02:15;17.40;99.90
24162;DHT22;12318;51.262;7.066;2023-06-24T05:04:41;17.50;99.90
24162;DHT22;12318;51.262;7.066;2023-06-24T05:07:07;17.60;99.90
24162;DHT22;12318;51.262;7.066;2023-06-24T05:09:32;17.70;99.90
24162;DHT22;12318;51.262;7.066;2023-06-24T05:11:58;17.80;99.90
24162;DHT22;12318;51.262;7.066;2023-06-24T05:14:24;17.90;99.90
24162;DHT22;12318;51.262;7.066;2023-06-24T05:16:49;18.10;99.90
24162;DHT22;12318;51.262;7.066;2023-06-24T05:19:15;18.20;99.90
24162;DHT22;12318;51.262;7.066;2023-06-24T05:21:41;18.40;99.90
24162;DHT22;12318;51.262;7.066;2023-06-24T05:24:07;18.40;99.90
24162;DHT22;12318;51.262;7.066;2023-06-24T05:26:33;18.30;99.90
24162;DHT22;12318;51.262;7.066;2023-06-24T05:29:00;18.40;99.90
24162;DHT22;12318;51.262;7.066;2023-06-24T05:31:25;18.50;99.90
24162;DHT22;12318;51.262;7.066;2023-06-24T05:33:51;18.60;99.90
24162;DHT22;12318;51.262;7.066;2023-06-24T05:36:17;18.70;99.90
24162;DHT22;12318;51.262;7.066;2023-06-24T05:38:43;18.80;99.90
24162;DHT22;12318;51.262;7.066;2023-06-24T05:41:08;18.80;99.90
24162;DHT22;12318;51.262;7.066;2023-06-24T05:43:34;18.90;99.90
24162;DHT22;12318;51.262;7.066;2023-06-24T05:46:00;18.90;99.90
24162;DHT22;12318;51.262;7.066;2023-06-24T05:48:26;18.90;99.90
24162;DHT22;12318;51.262;7.066;2023-06-24T05:50:52;19.10;99.90
24162;DHT22;12318;51.262;7.066;2023-06-24T05:53:17;19.20;99.90
24162;DHT22;12318;51.262;7.066;2023-06-24T05:55:43;19.30;99.90
24162;DHT22;12318;51.262;7.066;2023-06-24T05:58:09;19.40;99.90
24162;DHT22;12318;51.262;7.066;2023-06-24T06:00:34;19.30;99.90
24162;DHT22;12318;51.262;7.066;2023-06-24T06:03:00;19.30;99.90
24162;DHT22;12318;51.262;7.066;2023-06-24T06:05:26;19.40;99.90
24162;DHT22;12318;51.262;7.066;2023-06-24T06:07:52;19.50;99.90
24162;DHT22;12318;51.262;7.066;2023-06-24T06:10:19;19.60;99.90
24162;DHT22;12318;51.262;7.066;2023-06-24T06:12:45;19.50;99.90
24162;DHT22;12318;51.262;7.066;2023-06-24T06:15:11;19.50;99.90
24162;DHT22;12318;51.262;7.066;2023-06-24T06:17:37;19.60;99.90
24162;DHT22;12318;51.262;7.066;2023-06-24T06:20:03;19.60;99.90
24162;DHT22;12318;51.262;7.066;2023-06-24T06:22:29;19.70;99.90
24162;DHT22;12318;51.262;7.066;2023-06-24T06:24:55;19.80;99.90
24162;DHT22;12318;51.262;7.066;2023-06-24T06:27:21;20.00;99.90
24162;DHT22;12318;51.262;7.066;2023-06-24T06:29:46;20.10;99.90
24162;DHT22;12318;51.262;7.066;2023-06-24T06:32:12;20.20;99.90
24162;DHT22;12318;51.262;7.066;2023-06-24T06:34:38;20.40;99.90
24162;DHT22;12318;51.262;7.066;2023-06-24T06:37:04;20.40;99.90
24162;DHT22;12318;51.262;7.066;2023-06-24T06:39:30;20.50;99.90
24162;DHT22;12318;51.262;7.066;2023-06-24T06:41:55;20.70;99.90
24162;DHT22;12318;51.262;7.066;2023-06-24T06:44:21;20.90;99.90
24162;DHT22;12318;51.262;7.066;2023-06-24T06:46:47;21.00;99.90
24162;DHT22;12318;51.262;7.066;2023-06-24T06:49:13;21.20;99.90
24162;DHT22;12318;51.262;7.066;2023-06-24T06:51:38;21.40;99.90
24162;DHT22;12318;51.262;7.066;2023-06-24T06:54:04;21.50;99.90
24162;DHT22;12318;51.262;7.066;2023-06-24T06:56:30;21.60;99.90
24162;DHT22;12318;51.262;7.066;2023-06-24T06:58:56;21.60;99.90
24162;DHT22;12318;51.262;7.066;2023-06-24T07:01:21;21.50;99.90
24162;DHT22;12318;51.262;7.066;2023-06-24T07:03:49;21.40;99.90
24162;DHT22;12318;51.262;7.066;2023-06-24T07:06:15;21.70;99.90
24162;DHT22;12318;51.262;7.066;2023-06-24T07:08:40;21.70;99.90
24162;DHT22;12318;51.262;7.066;2023-06-24T07:11:06;21.70;99.90
24162;DHT22;12318;51.262;7.066;2023-06-24T07:13:32;21.70;99.90
24162;DHT22;12318;51.262;7.066;2023-06-24T07:15:57;22.00;99.90
24162;DHT22;12318;51.262;7.066;2023-06-24T07:18:23;21.90;99.90
24162;DHT22;12318;51.262;7.066;2023-06-24T07:20:49;21.80;99.90
24162;DHT22;12318;51.262;7.066;2023-06-24T07:23:15;21.80;99.90
24162;DHT22;12318;51.262;7.066;2023-06-24T07:25:41;21.90;99.90
24162;DHT22;12318;51.262;7.066;2023-06-24T07:28:07;21.90;99.90
24162;DHT22;12318;51.262;7.066;2023-06-24T07:30:32;22.10;99.90
24162;DHT22;12318;51.262;7.066;2023-06-24T07:32:58;21.80;99.90
24162;DHT22;12318;51.262;7.066;2023-06-24T07:35:24;21.80;99.90
24162;DHT22;12318;51.262;7.066;2023-06-24T07:37:50;21.80;99.90
24162;DHT22;12318;51.262;7.066;2023-06-24T07:40:15;21.80;99.90
24162;DHT22;12318;51.262;7.066;2023-06-24T07:42:41;22.10;99.90
24162;DHT22;12318;51.262;7.066;2023-06-24T07:45:07;22.10;99.90
24162;DHT22;12318;51.262;7.066;2023-06-24T07:47:33;22.30;99.90
24162;DHT22;12318;51.262;7.066;2023-06-24T07:49:59;22.20;99.90
24162;DHT22;12318;51.262;7.066;2023-06-24T07:52:25;22.30;99.90
24162;DHT22;12318;51.262;7.066;2023-06-24T07:54:50;22.30;99.90
24162;DHT22;12318;51.262;7.066;2023-06-24T07:57:17;22.30;99.90
24162;DHT22;12318;51.262;7.066;2023-06-24T07:59:43;22.40;99.90
24162;DHT22;12318;51.262;7.066;2023-06-24T08:02:09;22.40;99.90
24162;DHT22;12318;51.262;7.066;2023-06-24T08:04:34;22.60;99.90
24162;DHT22;12318;51.262;7.066;2023-06-24T08:07:00;22.60;99.90
24162;DHT22;12318;51.262;7.066;2023-06-24T08:09:27;22.50;99.90
24162;DHT22;12318;51.262;7.066;2023-06-24T08:11:53;22.50;99.90
24162;DHT22;12318;51.262;7.066;2023-06-24T08:14:19;22.50;99.90
24162;DHT22;12318;51.262;7.066;2023-06-24T08:16:44;22.50;99.90
24162;DHT22;12318;51.262;7.066;2023-06-24T08:19:10;22.10;99.90
24162;DHT22;12318;51.262;7.066;2023-06-24T08:21:36;22.30;99.90
24162;DHT22;12318;51.262;7.066;2023-06-24T08:24:04;22.50;99.90
24162;DHT22;12318;51.262;7.066;2023-06-24T08:26:30;22.70;99.90
24162;DHT22;12318;51.262;7.066;2023-06-24T08:28:56;22.90;99.90
24162;DHT22;12318;51.262;7.066;2023-06-24T08:31:24;22.90;99.90
24162;DHT22;12318;51.262;7.066;2023-06-24T08:33:52;23.00;99.90
24162;DHT22;12318;51.262;7.066;2023-06-24T08:36:21;22.50;99.90
24162;DHT22;12318;51.262;7.066;2023-06-24T08:38:46;22.70;99.90
24162;DHT22;12318;51.262;7.066;2023-06-24T08:41:12;23.10;99.90
24162;DHT22;12318;51.262;7.066;2023-06-24T08:43:38;23.30;99.90
24162;DHT22;12318;51.262;7.066;2023-06-24T08:46:08;23.40;99.90
24162;DHT22;12318;51.262;7.066;2023-06-24T08:48:35;23.40;99.90
24162;DHT22;12318;51.262;7.066;2023-06-24T08:51:07;23.40;99.90
24162;DHT22;12318;51.262;7.066;2023-06-24T08:53:34;23.10;99.90
24162;DHT22;12318;51.262;7.066;2023-06-24T08:56:01;23.30;99.90
24162;DHT22;12318;51.262;7.066;2023-06-24T08:58:27;23.50;99.90
24162;DHT22;12318;51.262;7.066;2023-06-24T09:00:53;23.80;99.90
24162;DHT22;12318;51.262;7.066;2023-06-24T09:03:19;23.70;99.90
24162;DHT22;12318;51.262;7.066;2023-06-24T09:05:44;23.80;99.90
24162;DHT22;12318;51.262;7.066;2023-06-24T09:08:10;24.10;99.90
24162;DHT22;12318;51.262;7.066;2023-06-24T09:10:37;23.50;99.90
24162;DHT22;12318;51.262;7.066;2023-06-24T09:13:04;23.60;99.90
24162;DHT22;12318;51.262;7.066;2023-06-24T09:15:39;23.90;99.80
24162;DHT22;12318;51.262;7.066;2023-06-24T09:18:05;23.80;98.90
24162;DHT22;12318;51.262;7.066;2023-06-24T09:20:32;23.90;98.00
24162;DHT22;12318;51.262;7.066;2023-06-24T09:23:02;23.60;99.90
24162;DHT22;12318;51.262;7.066;2023-06-24T09:25:29;23.70;99.90
24162;DHT22;12318;51.262;7.066;2023-06-24T09:27:58;23.90;99.90
24162;DHT22;12318;51.262;7.066;2023-06-24T09:30:24;23.80;99.90
24162;DHT22;12318;51.262;7.066;2023-06-24T09:32:52;24.00;99.70
24162;DHT22;12318;51.262;7.066;2023-06-24T09:35:19;24.20;97.10
24162;DHT22;12318;51.262;7.066;2023-06-24T09:37:57;24.40;95.50
24162;DHT22;12318;51.262;7.066;2023-06-24T09:40:24;24.60;92.80
24162;DHT22;12318;51.262;7.066;2023-06-24T09:42:57;24.50;91.60
24162;DHT22;12318;51.262;7.066;2023-06-24T09:45:30;24.60;91.20
24162;DHT22;12318;51.262;7.066;2023-06-24T09:47:57;24.70;89.30
24162;DHT22;12318;51.262;7.066;2023-06-24T09:50:26;24.70;85.50
24162;DHT22;12318;51.262;7.066;2023-06-24T09:52:52;24.60;86.00
24162;DHT22;12318;51.262;7.066;2023-06-24T09:55:18;24.50;86.80
24162;DHT22;12318;51.262;7.066;2023-06-24T09:57:46;24.20;90.80
24162;DHT22;12318;51.262;7.066;2023-06-24T10:00:17;24.30;87.00
24162;DHT22;12318;51.262;7.066;2023-06-24T10:02:44;24.20;84.40
24162;DHT22;12318;51.262;7.066;2023-06-24T10:05:12;24.20;89.50
24162;DHT22;12318;51.262;7.066;2023-06-24T10:07:39;24.40;91.00
24162;DHT22;12318;51.262;7.066;2023-06-24T10:10:06;24.50;84.30
24162;DHT22;12318;51.262;7.066;2023-06-24T10:12:36;24.60;89.00
24162;DHT22;12318;51.262;7.066;2023-06-24T10:15:02;24.40;80.30
24162;DHT22;12318;51.262;7.066;2023-06-24T10:17:30;24.40;80.00
24162;DHT22;12318;51.262;7.066;2023-06-24T10:19:55;24.80;82.40
24162;DHT22;12318;51.262;7.066;2023-06-24T10:22:24;24.80;79.90
24162;DHT22;12318;51.262;7.066;2023-06-24T10:24:52;24.90;78.20
24162;DHT22;12318;51.262;7.066;2023-06-24T10:27:21;25.00;79.20
24162;DHT22;12318;51.262;7.066;2023-06-24T10:29:53;25.20;72.30
24162;DHT22;12318;51.262;7.066;2023-06-24T10:32:22;25.10;73.10
24162;DHT22;12318;51.262;7.066;2023-06-24T10:34:57;25.00;69.70
24162;DHT22;12318;51.262;7.066;2023-06-24T10:37:30;25.10;71.30
24162;DHT22;12318;51.262;7.066;2023-06-24T10:39:57;24.90;65.60
24162;DHT22;12318;51.262;7.066;2023-06-24T10:45:00;25.10;70.30
24162;DHT22;12318;51.262;7.066;2023-06-24T10:47:28;25.40;61.00
24162;DHT22;12318;51.262;7.066;2023-06-24T10:49:54;25.50;59.90
24162;DHT22;12318;51.262;7.066;2023-06-24T10:52:21;26.00;60.50
24162;DHT22;12318;51.262;7.066;2023-06-24T10:54:47;26.00;65.40
24162;DHT22;12318;51.262;7.066;2023-06-24T10:57:14;25.70;62.70
24162;DHT22;12318;51.262;7.066;2023-06-24T10:59:46;25.50;61.80
24162;DHT22;12318;51.262;7.066;2023-06-24T11:02:17;25.30;57.70
24162;DHT22;12318;51.262;7.066;2023-06-24T11:04:44;25.40;58.30
24162;DHT22;12318;51.262;7.066;2023-06-24T11:07:10;25.50;56.80
24162;DHT22;12318;51.262;7.066;2023-06-24T11:09:36;25.50;55.40
24162;DHT22;12318;51.262;7.066;2023-06-24T11:12:03;25.70;52.20
24162;DHT22;12318;51.262;7.066;2023-06-24T11:14:29;25.90;51.40
24162;DHT22;12318;51.262;7.066;2023-06-24T11:16:55;25.70;48.50
24162;DHT22;12318;51.262;7.066;2023-06-24T11:19:21;25.60;46.90
24162;DHT22;12318;51.262;7.066;2023-06-24T11:21:46;25.50;48.70
24162;DHT22;12318;51.262;7.066;2023-06-24T11:24:12;25.80;49.10
24162;DHT22;12318;51.262;7.066;2023-06-24T11:26:38;25.90;51.80
24162;DHT22;12318;51.262;7.066;2023-06-24T11:29:13;26.00;49.30
24162;DHT22;12318;51.262;7.066;2023-06-24T11:31:39;26.00;49.10
24162;DHT22;12318;51.262;7.066;2023-06-24T11:34:05;25.90;48.30
24162;DHT22;12318;51.262;7.066;2023-06-24T11:36:30;25.80;48.40
24162;DHT22;12318;51.262;7.066;2023-06-24T11:38:57;25.60;49.90
24162;DHT22;12318;51.262;7.066;2023-06-24T11:41:23;25.70;53.60
24162;DHT22;12318;51.262;7.066;2023-06-24T11:43:51;25.90;51.40
24162;DHT22;12318;51.262;7.066;2023-06-24T11:46:26;25.80;51.80
24162;DHT22;12318;51.262;7.066;2023-06-24T11:49:02;25.90;46.90
24162;DHT22;12318;51.262;7.066;2023-06-24T11:51:28;25.90;45.60
24162;DHT22;12318;51.262;7.066;2023-06-24T11:54:01;26.10;50.80
24162;DHT22;12318;51.262;7.066;2023-06-24T11:56:50;26.40;43.70
24162;DHT22;12318;51.262;7.066;2023-06-24T11:59:23;26.50;41.40
24162;DHT22;12318;51.262;7.066;2023-06-24T12:01:58;26.40;34.00
24162;DHT22;12318;51.262;7.066;2023-06-24T12:04:32;26.10;38.00
24162;DHT22;12318;51.262;7.066;2023-06-24T12:06:59;26.20;40.10
24162;DHT22;12318;51.262;7.066;2023-06-24T12:09:25;26.10;40.30
24162;DHT22;12318;51.262;7.066;2023-06-24T12:11:51;26.20;43.60
24162;DHT22;12318;51.262;7.066;2023-06-24T12:14:18;26.00;40.30
24162;DHT22;12318;51.262;7.066;2023-06-24T12:16:44;26.30;41.10
24162;DHT22;12318;51.262;7.066;2023-06-24T12:19:10;26.40;43.50
24162;DHT22;12318;51.262;7.066;2023-06-24T12:21:37;26.50;42.30
24162;DHT22;12318;51.262;7.066;2023-06-24T12:24:04;26.40;37.80
24162;DHT22;12318;51.262;7.066;2023-06-24T12:26:32;26.40;36.10
24162;DHT22;12318;51.262;7.066;2023-06-24T12:28:58;26.50;37.40
24162;DHT22;12318;51.262;7.066;2023-06-24T12:31:26;26.90;34.20
24162;DHT22;12318;51.262;7.066;2023-06-24T12:33:52;26.90;39.90
24162;DHT22;12318;51.262;7.066;2023-06-24T12:36:24;26.50;43.30
24162;DHT22;12318;51.262;7.066;2023-06-24T12:38:50;26.30;37.00
24162;DHT22;12318;51.262;7.066;2023-06-24T12:41:59;26.20;40.60
24162;DHT22;12318;51.262;7.066;2023-06-24T12:47:58;26.50;38.10
24162;DHT22;12318;51.262;7.066;2023-06-24T12:50:32;26.50;33.80
24162;DHT22;12318;51.262;7.066;2023-06-24T12:52:58;26.80;32.80
24162;DHT22;12318;51.262;7.066;2023-06-24T12:55:28;26.90;28.80
24162;DHT22;12318;51.262;7.066;2023-06-24T12:58:02;27.00;27.90
24162;DHT22;12318;51.262;7.066;2023-06-24T13:00:31;27.00;29.60
24162;DHT22;12318;51.262;7.066;2023-06-24T13:02:56;26.80;28.40
24162;DHT22;12318;51.262;7.066;2023-06-24T13:05:22;27.10;25.80
24162;DHT22;12318;51.262;7.066;2023-06-24T13:07:48;27.20;28.70
24162;DHT22;12318;51.262;7.066;2023-06-24T13:10:14;27.10;27.80
24162;DHT22;12318;51.262;7.066;2023-06-24T13:12:43;27.10;27.00
24162;DHT22;12318;51.262;7.066;2023-06-24T13:15:09;26.40;23.20
24162;DHT22;12318;51.262;7.066;2023-06-24T13:17:35;26.50;31.10
24162;DHT22;12318;51.262;7.066;2023-06-24T13:20:02;26.80;28.20
24162;DHT22;12318;51.262;7.066;2023-06-24T13:22:30;27.00;29.50
24162;DHT22;12318;51.262;7.066;2023-06-24T13:24:56;27.00;28.00
24162;DHT22;12318;51.262;7.066;2023-06-24T13:27:22;26.90;30.00
24162;DHT22;12318;51.262;7.066;2023-06-24T13:29:48;27.10;31.60
24162;DHT22;12318;51.262;7.066;2023-06-24T13:32:14;27.30;26.60
24162;DHT22;12318;51.262;7.066;2023-06-24T13:34:39;27.20;32.90
24162;DHT22;12318;51.262;7.066;2023-06-24T13:40:17;26.80;28.80
24162;DHT22;12318;51.262;7.066;2023-06-24T13:45:42;26.90;25.70
24162;DHT22;12318;51.262;7.066;2023-06-24T13:48:10;27.10;29.90
24162;DHT22;12318;51.262;7.066;2023-06-24T13:50:36;27.00;28.70
24162;DHT22;12318;51.262;7.066;2023-06-24T13:53:02;27.00;29.00
24162;DHT22;12318;51.262;7.066;2023-06-24T13:55:33;27.20;28.80
24162;DHT22;12318;51.262;7.066;2023-06-24T13:58:01;27.20;33.80
24162;DHT22;12318;51.262;7.066;2023-06-24T14:00:38;27.30;30.40
24162;DHT22;12318;51.262;7.066;2023-06-24T14:03:05;27.50;27.80
24162;DHT22;12318;51.262;7.066;2023-06-24T14:05:31;27.50;27.50
24162;DHT22;12318;51.262;7.066;2023-06-24T14:07:56;27.40;28.00
24162;DHT22;12318;51.262;7.066;2023-06-24T14:10:22;27.10;27.20
24162;DHT22;12318;51.262;7.066;2023-06-24T14:12:48;27.00;33.20
24162;DHT22;12318;51.262;7.066;2023-06-24T14:15:14;27.10;29.20
24162;DHT22;12318;51.262;7.066;2023-06-24T14:17:39;27.20;29.40
24162;DHT22;12318;51.262;7.066;2023-06-24T14:20:06;27.00;30.10
24162;DHT22;12318;51.262;7.066;2023-06-24T14:22:32;26.90;26.70
24162;DHT22;12318;51.262;7.066;2023-06-24T14:24:58;26.70;34.70
24162;DHT22;12318;51.262;7.066;2023-06-24T14:27:23;26.70;29.00
24162;DHT22;12318;51.262;7.066;2023-06-24T14:29:49;26.50;22.60
24162;DHT22;12318;51.262;7.066;2023-06-24T14:32:15;26.60;24.40
24162;DHT22;12318;51.262;7.066;2023-06-24T14:34:41;26.80;27.10
24162;DHT22;12318;51.262;7.066;2023-06-24T14:37:06;26.70;25.30
24162;DHT22;12318;51.262;7.066;2023-06-24T14:39:32;26.80;28.40
24162;DHT22;12318;51.262;7.066;2023-06-24T14:41:58;27.00;27.20
24162;DHT22;12318;51.262;7.066;2023-06-24T14:44:24;27.30;25.70
24162;DHT22;12318;51.262;7.066;2023-06-24T14:46:52;27.20;25.70
24162;DHT22;12318;51.262;7.066;2023-06-24T14:49:20;27.10;26.00
24162;DHT22;12318;51.262;7.066;2023-06-24T14:51:49;27.30;24.10
24162;DHT22;12318;51.262;7.066;2023-06-24T14:54:14;27.00;21.60
24162;DHT22;12318;51.262;7.066;2023-06-24T14:56:40;27.00;21.60
24162;DHT22;12318;51.262;7.066;2023-06-24T14:59:09;27.20;23.80
24162;DHT22;12318;51.262;7.066;2023-06-24T15:01:38;27.00;27.70
24162;DHT22;12318;51.262;7.066;2023-06-24T15:04:04;27.20;20.40
24162;DHT22;12318;51.262;7.066;2023-06-24T15:06:29;27.60;26.70
24162;DHT22;12318;51.262;7.066;2023-06-24T15:08:55;28.00;24.80
24162;DHT22;12318;51.262;7.066;2023-06-24T15:11:21;28.00;23.60
24162;DHT22;12318;51.262;7.066;2023-06-24T15:13:47;28.00;22.10
24162;DHT22;12318;51.262;7.066;2023-06-24T15:16:13;28.40;23.00
24162;DHT22;12318;51.262;7.066;2023-06-24T15:18:45;28.40;22.10
24162;DHT22;12318;51.262;7.066;2023-06-24T15:21:13;29.20;20.80
24162;DHT22;12318;51.262;7.066;2023-06-24T15:23:39;29.40;16.30
24162;DHT22;12318;51.262;7.066;2023-06-24T15:26:05;29.30;13.90
24162;DHT22;12318;51.262;7.066;2023-06-24T15:28:30;28.00;14.60
24162;DHT22;12318;51.262;7.066;2023-06-24T15:30:56;28.40;18.70
24162;DHT22;12318;51.262;7.066;2023-06-24T15:33:22;29.20;16.90
24162;DHT22;12318;51.262;7.066;2023-06-24T15:35:48;29.80;16.00
24162;DHT22;12318;51.262;7.066;2023-06-24T15:38:13;29.70;12.80
24162;DHT22;12318;51.262;7.066;2023-06-24T15:40:40;29.50;16.50
24162;DHT22;12318;51.262;7.066;2023-06-24T15:43:06;29.90;12.70
24162;DHT22;12318;51.262;7.066;2023-06-24T15:45:37;30.30;14.00
24162;DHT22;12318;51.262;7.066;2023-06-24T15:48:03;30.20;13.00
24162;DHT22;12318;51.262;7.066;2023-06-24T15:50:30;29.50;10.30